Time;durP1;ratioP1;P1;durP2;ratioP2;P2;SDS_P1;SDS_P2;PMS_P1;PMS_P2;Temp;Humidity;BMP_temperature;BMP_pressure;BME280_temperature;BME280_humidity;BME280_pressure;Samples;Min_cycle;Max_cycle;Signal;HPM_P1;HPM_P2
2023/05/11 00:01:48;;;;;;;1.50;0.90;;;12.60;99.90;;;;;;6062887;23;20409;-80
2023/05/11 00:04:15;;;;;;;1.15;1.05;;;12.50;99.90;;;;;;6062816;23;20861;-82
2023/05/11 00:06:42;;;;;;;1.88;1.00;;;12.50;99.90;;;;;;6062728;23;20371;-79
2023/05/11 00:09:10;;;;;;;1.30;0.90;;;12.40;99.90;;;;;;6087250;23;20386;-80
2023/05/11 00:11:37;;;;;;;1.10;0.90;;;12.40;99.90;;;;;;6062702;23;20379;-80
2023/05/11 00:14:04;;;;;;;0.75;0.75;;;12.40;99.90;;;;;;6063412;23;20932;-80
2023/05/11 00:16:31;;;;;;;1.17;1.08;;;12.30;99.90;;;;;;6062503;23;20395;-79
2023/05/11 00:18:57;;;;;;;1.20;0.85;;;12.30;99.90;;;;;;6063056;23;20402;-79
2023/05/11 00:21:25;;;;;;;1.10;0.90;;;12.20;99.90;;;;;;6062508;23;20403;-79
2023/05/11 00:23:52;;;;;;;1.00;0.90;;;12.20;99.90;;;;;;6063158;23;20711;-79
2023/05/11 00:26:18;;;;;;;1.10;0.85;;;12.10;99.90;;;;;;6063902;23;20435;-80
2023/05/11 00:28:45;;;;;;;2.00;1.20;;;12.10;99.90;;;;;;6062781;23;20766;-80
2023/05/11 00:31:12;;;;;;;1.63;1.20;;;12.00;99.90;;;;;;6063741;23;20447;-79
2023/05/11 00:33:39;;;;;;;1.27;1.17;;;12.00;99.90;;;;;;6062357;23;20379;-79
2023/05/11 00:36:06;;;;;;;2.28;1.50;;;12.00;99.90;;;;;;6063373;23;20755;-81
2023/05/11 00:38:35;;;;;;;1.80;1.10;;;12.00;99.90;;;;;;6062472;23;20695;-80
2023/05/11 00:41:02;;;;;;;1.70;1.60;;;11.90;99.90;;;;;;6062761;23;20750;-80
2023/05/11 00:43:29;;;;;;;1.00;0.90;;;11.90;99.90;;;;;;6064352;23;20924;-79
2023/05/11 00:45:56;;;;;;;0.98;0.88;;;11.80;99.90;;;;;;6064700;23;20473;-80
2023/05/11 00:48:22;;;;;;;0.70;0.60;;;11.80;99.90;;;;;;6065143;23;20418;-79
2023/05/11 00:50:50;;;;;;;0.93;0.73;;;11.80;99.90;;;;;;6064353;23;20490;-80
2023/05/11 00:53:16;;;;;;;0.98;0.90;;;11.80;99.90;;;;;;6064646;23;20390;-79
2023/05/11 00:55:43;;;;;;;1.10;0.80;;;11.80;99.90;;;;;;6064010;23;20758;-79
2023/05/11 00:58:10;;;;;;;1.20;1.00;;;11.80;99.90;;;;;;6064909;23;20470;-80
2023/05/11 01:00:38;;;;;;;0.82;0.70;;;11.70;99.90;;;;;;6063651;23;20421;-79
2023/05/11 06:47:30;;;;;;;0.60;0.00;;;13.40;60.40;;;;;;6108094;23;20354;-81
2023/05/11 06:50:00;;;;;;;1.00;0.10;;;13.50;61.80;;;;;;6127395;23;20378;-83
2023/05/11 06:52:27;;;;;;;0.00;0.00;;;13.70;59.40;;;;;;6125526;23;20433;-80
2023/05/11 06:54:55;;;;;;;0.68;0.03;;;13.80;59.20;;;;;;6126979;23;20374;-81
2023/05/11 06:57:21;;;;;;;0.00;0.00;;;13.90;58.40;;;;;;6127193;23;20412;-81
2023/05/11 06:59:49;;;;;;;0.57;0.10;;;14.00;58.40;;;;;;6125169;23;20374;-81
2023/05/11 07:02:16;;;;;;;2.20;0.05;;;14.20;56.40;;;;;;6122080;23;20387;-81
2023/05/11 07:04:43;;;;;;;1.10;0.10;;;14.30;57.70;;;;;;6096690;23;20427;-80
2023/05/11 07:07:11;;;;;;;0.65;0.03;;;14.60;56.80;;;;;;6097016;23;20376;-80
2023/05/11 07:09:37;;;;;;;1.10;0.10;;;14.70;55.60;;;;;;6096692;23;20403;-80
2023/05/11 07:12:07;;;;;;;2.30;0.00;;;14.90;54.70;;;;;;6097777;23;20368;-81
2023/05/11 07:14:33;;;;;;;1.30;0.10;;;14.90;55.70;;;;;;6096852;23;20444;-81
2023/05/11 07:17:00;;;;;;;0.35;0.00;;;15.10;53.20;;;;;;6097128;23;20383;-80
2023/05/11 07:19:27;;;;;;;1.45;0.10;;;15.30;53.50;;;;;;6097267;23;20376;-81
2023/05/11 07:21:54;;;;;;;0.60;0.00;;;15.50;50.30;;;;;;6096198;23;20403;-79
2023/05/11 07:24:21;;;;;;;0.50;0.00;;;15.60;50.50;;;;;;6097765;23;20380;-81
2023/05/11 07:26:49;;;;;;;0.80;0.20;;;15.80;50.70;;;;;;6096410;23;20443;-81
2023/05/11 07:29:16;;;;;;;0.30;0.13;;;15.90;50.00;;;;;;6097711;23;20483;-80
2023/05/11 07:31:43;;;;;;;0.65;0.10;;;16.10;49.40;;;;;;6096391;23;20454;-80
2023/05/11 07:34:10;;;;;;;0.10;0.00;;;16.20;51.50;;;;;;6097577;23;20707;-81
2023/05/11 07:36:37;;;;;;;0.93;0.00;;;16.40;48.90;;;;;;6093150;23;20782;-80
2023/05/11 07:39:04;;;;;;;0.40;0.10;;;16.50;48.30;;;;;;6097706;23;20395;-80
2023/05/11 07:41:31;;;;;;;1.63;0.10;;;16.60;49.00;;;;;;6096410;23;20387;-82
2023/05/11 07:44:00;;;;;;;0.90;0.00;;;16.70;49.30;;;;;;6096763;23;20414;-81
2023/05/11 07:46:27;;;;;;;1.30;0.05;;;16.80;48.30;;;;;;6097729;23;20379;-79
2023/05/11 07:48:54;;;;;;;0.10;0.10;;;17.00;49.00;;;;;;6096211;23;20379;-80
2023/05/11 07:51:41;;;;;;;0.68;0.10;;;17.10;46.90;;;;;;6120587;23;20384;-81
2023/05/11 07:54:08;;;;;;;0.90;0.10;;;17.30;48.60;;;;;;6097879;23;20376;-82
2023/05/11 07:56:35;;;;;;;0.10;0.00;;;17.40;49.80;;;;;;6096037;23;20375;-83
2023/05/11 07:59:02;;;;;;;0.80;0.20;;;17.60;46.30;;;;;;6097468;23;20372;-81
2023/05/11 08:01:29;;;;;;;1.13;0.00;;;17.70;48.40;;;;;;6097432;23;20375;-80
2023/05/11 08:03:56;;;;;;;0.63;0.00;;;17.80;44.90;;;;;;6096315;23;20451;-81
2023/05/11 08:06:23;;;;;;;0.98;0.05;;;18.00;47.20;;;;;;6096918;23;20710;-80
2023/05/11 08:08:50;;;;;;;0.13;0.00;;;18.10;46.30;;;;;;6096399;23;20439;-81
2023/05/11 08:11:17;;;;;;;0.25;0.00;;;18.20;44.00;;;;;;6097152;23;20379;-81
2023/05/11 08:13:44;;;;;;;0.60;0.00;;;18.40;46.70;;;;;;6096078;23;20462;-81
2023/05/11 08:16:11;;;;;;;0.28;0.10;;;18.50;42.80;;;;;;6097102;23;20498;-81
2023/05/11 08:18:38;;;;;;;0.10;0.03;;;18.70;42.10;;;;;;6096452;23;20447;-82
2023/05/11 08:21:06;;;;;;;0.40;0.10;;;18.70;43.20;;;;;;6122627;23;20375;-81
2023/05/11 08:23:33;;;;;;;0.20;0.10;;;18.90;43.50;;;;;;6097509;23;20470;-80
2023/05/11 08:26:00;;;;;;;0.28;0.00;;;19.00;42.60;;;;;;6096330;23;20431;-81
2023/05/11 08:28:26;;;;;;;0.30;0.10;;;19.10;41.40;;;;;;6123004;23;20376;-81
2023/05/11 08:30:57;;;;;;;0.55;0.20;;;19.30;45.50;;;;;;6096222;23;20403;-82
2023/05/11 08:33:26;;;;;;;0.50;0.10;;;19.40;45.80;;;;;;6097087;23;20371;-81
2023/05/11 08:36:03;;;;;;;0.40;0.10;;;19.60;45.60;;;;;;6098913;23;20452;-81
2023/05/11 08:38:35;;;;;;;0.50;0.05;;;19.80;47.70;;;;;;6097652;23;20391;-80
2023/05/11 08:41:03;;;;;;;0.30;0.00;;;20.00;42.50;;;;;;6119972;23;20376;-80
2023/05/11 08:43:35;;;;;;;0.13;0.00;;;20.10;41.40;;;;;;6097043;23;20395;-81
2023/05/11 08:46:06;;;;;;;1.10;0.10;;;20.20;41.50;;;;;;6096254;23;20375;-81
2023/05/11 08:48:33;;;;;;;0.03;0.00;;;20.30;43.10;;;;;;6097171;23;20463;-81
2023/05/11 08:51:02;;;;;;;0.40;0.00;;;20.40;40.80;;;;;;6121680;23;20933;-82
2023/05/11 08:53:30;;;;;;;0.17;0.00;;;20.60;40.30;;;;;;6097379;23;20684;-81
2023/05/11 08:55:59;;;;;;;0.27;0.10;;;20.70;37.50;;;;;;6096466;23;20403;-82
2023/05/11 08:58:27;;;;;;;0.70;0.00;;;20.80;38.00;;;;;;6097042;23;20467;-81
2023/05/11 09:00:55;;;;;;;0.30;0.00;;;20.90;38.80;;;;;;6093595;23;20391;-82
2023/05/11 09:03:22;;;;;;;0.70;0.00;;;21.10;40.70;;;;;;6097296;23;20394;-82
2023/05/11 09:05:49;;;;;;;0.10;0.00;;;21.30;40.70;;;;;;6097811;23;20380;-82
2023/05/11 09:08:18;;;;;;;0.60;0.20;;;21.50;40.40;;;;;;6098167;23;20383;-82
2023/05/11 09:10:45;;;;;;;0.93;0.70;;;21.80;42.70;;;;;;6094887;23;20407;-81
2023/05/11 09:13:12;;;;;;;0.40;0.40;;;21.90;50.60;;;;;;6097970;23;20387;-82
2023/05/11 09:15:39;;;;;;;0.93;0.50;;;21.80;52.40;;;;;;6097988;23;20371;-81
2023/05/11 09:18:06;;;;;;;0.57;0.50;;;21.70;51.80;;;;;;6097728;23;20443;-82
2023/05/11 09:20:33;;;;;;;2.33;0.70;;;21.60;54.10;;;;;;6094816;23;20454;-81
2023/05/11 09:23:01;;;;;;;1.90;0.60;;;21.50;54.50;;;;;;6095349;23;20471;-82
2023/05/11 09:25:33;;;;;;;0.80;0.65;;;21.50;54.80;;;;;;6098423;23;20738;-81
2023/05/11 09:28:00;;;;;;;2.03;0.98;;;21.40;53.20;;;;;;6097533;23;20372;-81
2023/05/11 09:30:27;;;;;;;1.60;0.80;;;21.30;56.30;;;;;;6097795;23;20382;-80
2023/05/11 09:32:58;;;;;;;1.30;0.82;;;21.30;55.70;;;;;;6097463;23;20375;-80
2023/05/11 09:35:27;;;;;;;2.30;0.70;;;21.30;56.20;;;;;;6098443;23;20371;-81
2023/05/11 09:38:05;;;;;;;1.42;1.17;;;21.40;55.40;;;;;;6097987;23;20379;-80
2023/05/11 09:40:37;;;;;;;1.73;0.65;;;21.40;57.10;;;;;;6096943;23;20383;-80
2023/05/11 09:43:23;;;;;;;1.60;1.00;;;21.40;57.60;;;;;;6097432;23;20753;-81
2023/05/11 09:45:55;;;;;;;1.52;0.80;;;21.50;59.70;;;;;;6096719;23;20440;-80
2023/05/11 09:48:28;;;;;;;1.17;0.80;;;21.70;57.30;;;;;;6098334;23;20368;-80
2023/05/11 09:51:02;;;;;;;1.92;1.00;;;21.80;58.40;;;;;;6097041;23;20372;-80
2023/05/11 09:53:41;;;;;;;1.10;0.73;;;22.00;57.80;;;;;;6097776;23;20376;-81
2023/05/11 09:56:09;;;;;;;0.60;0.60;;;22.20;56.80;;;;;;6096473;23;20375;-82
2023/05/11 09:58:56;;;;;;;0.90;0.70;;;22.30;54.10;;;;;;6097956;23;20431;-81
2023/05/11 10:01:33;;;;;;;1.13;0.93;;;22.30;54.80;;;;;;6123021;23;20410;-81
2023/05/11 10:04:01;;;;;;;1.15;0.50;;;22.20;53.20;;;;;;6096866;23;20434;-80
2023/05/11 10:06:55;;;;;;;0.77;0.50;;;22.10;53.20;;;;;;6101873;23;20384;-81
2023/05/11 10:09:27;;;;;;;0.80;0.50;;;22.10;53.70;;;;;;6122210;23;20467;-81
2023/05/11 10:11:55;;;;;;;1.50;0.60;;;22.20;55.20;;;;;;6098091;23;20375;-81
2023/05/11 10:14:26;;;;;;;1.20;0.60;;;22.30;54.90;;;;;;6097450;23;20380;-81
2023/05/11 10:16:56;;;;;;;0.85;0.50;;;22.50;56.10;;;;;;6098050;23;20379;-81
2023/05/11 10:19:23;;;;;;;1.00;0.70;;;22.70;54.40;;;;;;6097499;23;20396;-81
2023/05/11 10:21:51;;;;;;;1.92;0.60;;;22.90;52.90;;;;;;6097813;23;20388;-81
2023/05/11 10:24:18;;;;;;;1.48;0.60;;;22.90;51.50;;;;;;6096822;23;20382;-83
2023/05/11 10:26:46;;;;;;;1.02;0.70;;;22.80;53.10;;;;;;6120854;23;20497;-83
2023/05/11 10:29:13;;;;;;;0.77;0.50;;;22.70;52.70;;;;;;6095029;23;20434;-81
2023/05/11 10:31:41;;;;;;;1.80;0.80;;;22.80;54.10;;;;;;6097487;23;20446;-83
2023/05/11 10:34:10;;;;;;;1.25;0.77;;;22.90;53.90;;;;;;6096890;23;20376;-81
2023/05/11 10:36:38;;;;;;;0.68;0.52;;;23.00;53.30;;;;;;6097585;23;20438;-79
2023/05/11 10:39:04;;;;;;;0.60;0.40;;;23.00;49.50;;;;;;6095776;23;20380;-81
2023/05/11 10:41:46;;;;;;;1.88;0.63;;;23.00;51.70;;;;;;6097055;23;20748;-81
2023/05/11 10:44:31;;;;;;;1.00;0.57;;;23.10;52.30;;;;;;6096803;23;20383;-79
2023/05/11 10:47:33;;;;;;;1.40;0.70;;;23.30;52.60;;;;;;6097564;23;20403;-81
2023/05/11 10:50:56;;;;;;;1.08;0.85;;;23.50;52.10;;;;;;6095081;23;20395;-81
2023/05/11 10:53:59;;;;;;;1.00;0.70;;;23.70;53.10;;;;;;6019493;23;20387;-79
2023/05/11 10:56:54;;;;;;;1.17;0.70;;;24.00;51.60;;;;;;6122447;23;20410;-80
2023/05/11 10:59:42;;;;;;;1.52;0.70;;;24.10;49.80;;;;;;6096968;23;20442;-80
2023/05/11 11:02:10;;;;;;;1.70;0.70;;;24.20;51.10;;;;;;6096490;23;20387;-82
2023/05/11 11:04:43;;;;;;;2.60;1.00;;;24.40;50.10;;;;;;6097426;23;20739;-82
2023/05/11 11:07:10;;;;;;;8.77;1.23;;;24.30;48.40;;;;;;6095628;23;20842;-81
2023/05/11 11:09:56;;;;;;;0.68;0.40;;;24.30;47.40;;;;;;6097417;23;20403;-82
2023/05/11 11:12:26;;;;;;;0.60;0.57;;;24.20;49.00;;;;;;6122125;23;20374;-81
2023/05/11 11:15:05;;;;;;;0.83;0.47;;;24.30;50.00;;;;;;6097434;23;20382;-82
2023/05/11 11:17:33;;;;;;;0.82;0.70;;;24.50;50.40;;;;;;6122021;23;20798;-82
2023/05/11 11:20:08;;;;;;;0.68;0.40;;;24.60;47.70;;;;;;6097910;23;20380;-83
2023/05/11 11:22:37;;;;;;;0.70;0.60;;;24.50;47.20;;;;;;6095914;23;21901;-82
2023/05/11 11:25:05;;;;;;;1.52;0.60;;;24.40;49.10;;;;;;6097271;23;20395;-83
2023/05/11 11:27:44;;;;;;;0.80;0.70;;;24.30;48.70;;;;;;6096139;23;20742;-83
2023/05/11 11:30:19;;;;;;;0.90;0.70;;;24.10;49.20;;;;;;6096550;23;20383;-82
2023/05/11 11:32:48;;;;;;;0.57;0.57;;;23.70;47.50;;;;;;6096988;23;20380;-82
2023/05/11 11:35:38;;;;;;;0.68;0.50;;;23.30;47.90;;;;;;6096703;23;20379;-82
2023/05/11 11:38:10;;;;;;;0.80;0.40;;;22.90;49.50;;;;;;6090290;23;20403;-82
2023/05/11 11:40:38;;;;;;;1.50;0.70;;;22.60;52.00;;;;;;6096583;23;20379;-81
2023/05/11 11:43:27;;;;;;;0.60;0.40;;;22.30;50.30;;;;;;6121690;23;20434;-82
2023/05/11 11:45:59;;;;;;;0.80;0.50;;;22.10;51.40;;;;;;6097108;23;20399;-81
2023/05/11 11:48:40;;;;;;;0.80;0.60;;;21.90;51.90;;;;;;6096175;23;20390;-82
2023/05/11 11:51:09;;;;;;;0.75;0.60;;;21.70;52.00;;;;;;6097403;23;20372;-81
2023/05/11 11:53:43;;;;;;;0.70;0.52;;;21.50;51.50;;;;;;6095831;23;20383;-82
2023/05/11 11:56:13;;;;;;;0.50;0.40;;;21.30;50.80;;;;;;6096457;23;20387;-83
2023/05/11 11:58:40;;;;;;;0.40;0.40;;;21.10;52.00;;;;;;6117390;23;20431;-82
2023/05/11 12:01:08;;;;;;;1.77;0.50;;;21.00;53.30;;;;;;6096870;23;20379;-82
2023/05/11 12:03:36;;;;;;;0.97;0.20;;;20.90;53.90;;;;;;6096596;23;20470;-82
2023/05/11 12:06:08;;;;;;;2.90;0.10;;;20.70;49.10;;;;;;6097033;23;20695;-80
2023/05/11 12:08:36;;;;;;;0.80;0.10;;;20.50;41.90;;;;;;6096427;23;20411;-81
2023/05/11 12:11:05;;;;;;;1.08;0.20;;;20.40;43.00;;;;;;6097241;23;20857;-80
2023/05/11 12:13:34;;;;;;;0.60;0.10;;;20.10;44.80;;;;;;6096222;23;20405;-81
2023/05/11 12:16:11;;;;;;;2.10;0.20;;;19.80;47.80;;;;;;6122727;23;20379;-81
2023/05/11 12:18:39;;;;;;;4.50;0.50;;;19.50;53.20;;;;;;6096365;23;20364;-80
2023/05/11 12:21:18;;;;;;;5.88;0.50;;;19.00;61.30;;;;;;6097073;23;20391;-81
2023/05/11 12:23:58;;;;;;;2.95;0.40;;;18.30;72.30;;;;;;6121937;23;20387;-80
2023/05/11 12:26:27;;;;;;;3.97;0.43;;;17.90;69.30;;;;;;6095611;23;20837;-79
2023/05/11 12:29:14;;;;;;;2.55;0.75;;;17.60;73.60;;;;;;6096695;23;20754;-81
2023/05/11 12:31:43;;;;;;;2.42;0.50;;;17.40;74.70;;;;;;6095888;23;20383;-81
2023/05/11 12:34:17;;;;;;;1.58;0.30;;;17.30;76.80;;;;;;6097020;23;20714;-81
2023/05/11 12:36:45;;;;;;;2.85;0.20;;;17.30;80.60;;;;;;6095404;23;20413;-80
2023/05/11 12:39:25;;;;;;;0.77;0.30;;;17.20;82.20;;;;;;6072512;23;20389;-80
2023/05/11 12:41:54;;;;;;;0.95;0.20;;;17.10;85.80;;;;;;6109927;23;20387;-81
2023/05/11 12:44:23;;;;;;;0.28;0.13;;;17.00;89.80;;;;;;6098655;23;20379;-80
2023/05/11 12:46:51;;;;;;;0.47;0.10;;;16.90;89.30;;;;;;6122383;23;20942;-80
2023/05/11 12:49:19;;;;;;;0.63;0.20;;;16.90;90.50;;;;;;6097880;23;20904;-80
2023/05/11 12:51:59;;;;;;;0.28;0.17;;;16.80;90.10;;;;;;6097397;23;20755;-80
2023/05/11 12:54:31;;;;;;;1.10;0.20;;;16.70;87.80;;;;;;6098465;23;20402;-79
2023/05/11 12:57:00;;;;;;;1.58;0.20;;;16.60;86.10;;;;;;6097757;23;20426;-78
2023/05/11 12:59:39;;;;;;;0.95;0.10;;;16.50;83.50;;;;;;6098773;23;20758;-78
2023/05/11 13:02:12;;;;;;;0.90;0.20;;;16.30;83.20;;;;;;6097656;23;20830;-79
2023/05/11 13:04:40;;;;;;;2.17;0.20;;;16.20;84.40;;;;;;6098599;23;20702;-78
2023/05/11 13:07:08;;;;;;;1.75;0.10;;;16.00;85.20;;;;;;6097571;23;20375;-80
2023/05/11 13:09:38;;;;;;;1.40;0.10;;;15.90;87.20;;;;;;6098973;23;20375;-78
2023/05/11 13:12:18;;;;;;;0.30;0.10;;;15.80;85.10;;;;;;6122869;23;20374;-78
2023/05/11 13:14:48;;;;;;;1.75;0.20;;;15.80;84.80;;;;;;6097168;23;20371;-79
2023/05/11 13:17:32;;;;;;;1.00;0.20;;;15.80;81.50;;;;;;6123440;23;20407;-79
2023/05/11 13:20:19;;;;;;;1.02;0.10;;;15.70;83.30;;;;;;6097107;23;20386;-78
2023/05/11 13:22:47;;;;;;;0.30;0.10;;;15.60;85.50;;;;;;6096713;23;20882;-79
2023/05/11 13:25:16;;;;;;;0.80;0.13;;;15.60;87.00;;;;;;6098196;23;20376;-78
2023/05/11 13:27:43;;;;;;;0.50;0.13;;;15.60;86.70;;;;;;6098809;23;20776;-78
2023/05/11 13:30:11;;;;;;;0.88;0.20;;;15.60;87.40;;;;;;6121358;23;20402;-79
2023/05/11 13:32:38;;;;;;;1.75;0.30;;;15.50;89.80;;;;;;6098545;23;20426;-78
2023/05/11 13:35:05;;;;;;;1.53;0.30;;;15.50;93.70;;;;;;6097409;23;20690;-78
2023/05/11 13:37:32;;;;;;;1.17;0.10;;;15.50;92.10;;;;;;6097876;23;20376;-78
2023/05/11 13:40:00;;;;;;;1.02;0.20;;;15.50;92.20;;;;;;6096883;23;20443;-78
2023/05/11 13:42:28;;;;;;;0.60;0.20;;;15.50;94.00;;;;;;6098178;23;20383;-81
2023/05/11 13:44:55;;;;;;;1.70;0.30;;;15.50;94.70;;;;;;6096719;23;20438;-78
2023/05/11 13:47:22;;;;;;;0.50;0.10;;;15.50;95.50;;;;;;6097936;23;20413;-78
2023/05/11 13:49:48;;;;;;;0.43;0.20;;;15.50;95.90;;;;;;6097023;23;20451;-79
2023/05/11 13:52:15;;;;;;;2.50;0.30;;;15.50;96.50;;;;;;6098036;23;20402;-78
2023/05/11 13:54:42;;;;;;;0.90;0.20;;;15.50;96.80;;;;;;6098893;23;20380;-78
2023/05/11 13:57:09;;;;;;;2.67;1.03;;;15.40;96.50;;;;;;6096608;23;20452;-79
2023/05/11 13:59:36;;;;;;;1.33;0.60;;;15.30;95.50;;;;;;6098171;23;20463;-78
2023/05/11 14:02:03;;;;;;;1.37;0.60;;;15.30;95.80;;;;;;6096555;23;20383;-78
2023/05/11 14:04:30;;;;;;;1.30;0.60;;;15.30;96.60;;;;;;6097490;23;20387;-80
2023/05/11 14:06:57;;;;;;;3.60;0.90;;;15.30;96.00;;;;;;6096911;23;20920;-79
2023/05/11 14:09:25;;;;;;;1.42;0.50;;;15.30;97.20;;;;;;6098061;23;20386;-78
2023/05/11 14:11:52;;;;;;;0.60;0.30;;;15.30;96.10;;;;;;6096875;23;20372;-79
2023/05/11 14:14:19;;;;;;;0.93;0.20;;;15.30;96.10;;;;;;6097926;23;20383;-78
2023/05/11 14:16:46;;;;;;;0.40;0.10;;;15.30;98.40;;;;;;6097985;23;20380;-78
2023/05/11 14:19:13;;;;;;;0.70;0.10;;;15.30;97.90;;;;;;6096542;23;20367;-79
2023/05/11 14:21:41;;;;;;;0.30;0.10;;;15.30;95.80;;;;;;6096588;23;20396;-78
2023/05/11 14:24:07;;;;;;;0.70;0.20;;;15.40;96.20;;;;;;6096198;23;20399;-79
2023/05/11 14:26:39;;;;;;;0.10;0.10;;;15.50;97.30;;;;;;6098336;23;20390;-79
2023/05/11 14:29:06;;;;;;;0.20;0.17;;;15.50;96.00;;;;;;6096697;23;20407;-79
2023/05/11 14:31:34;;;;;;;0.80;0.10;;;15.60;96.30;;;;;;6097907;23;20757;-78
2023/05/11 14:34:03;;;;;;;0.60;0.20;;;15.60;97.30;;;;;;6096463;23;20407;-78
2023/05/11 14:36:30;;;;;;;0.20;0.10;;;15.70;94.90;;;;;;6097836;23;20391;-79
2023/05/11 14:38:57;;;;;;;0.70;0.10;;;15.80;95.70;;;;;;6095900;23;20434;-78
2023/05/11 14:41:24;;;;;;;0.40;0.20;;;15.80;94.60;;;;;;6097810;23;20376;-79
2023/05/11 14:43:51;;;;;;;0.40;0.10;;;16.00;93.90;;;;;;6095708;23;20391;-81
2023/05/11 14:46:18;;;;;;;0.60;0.10;;;16.00;94.30;;;;;;6097393;23;20387;-79
2023/05/11 14:48:45;;;;;;;0.50;0.10;;;16.10;94.30;;;;;;6096673;23;20853;-79
2023/05/11 14:51:12;;;;;;;0.28;0.20;;;16.30;94.20;;;;;;6096257;23;20403;-79
2023/05/11 14:53:39;;;;;;;0.57;0.10;;;16.40;94.00;;;;;;6096638;23;20376;-79
2023/05/11 14:56:06;;;;;;;0.30;0.17;;;16.50;93.50;;;;;;6121954;23;20380;-82
2023/05/11 14:58:33;;;;;;;0.10;0.10;;;16.70;93.80;;;;;;6097237;23;20434;-79
2023/05/11 15:01:00;;;;;;;0.50;0.10;;;16.90;93.60;;;;;;6095839;23;20447;-79
2023/05/11 15:03:27;;;;;;;0.80;0.10;;;17.00;93.20;;;;;;6096480;23;20691;-80
2023/05/11 15:05:54;;;;;;;0.43;0.20;;;17.20;92.40;;;;;;6095968;23;20384;-79
2023/05/11 15:08:20;;;;;;;0.30;0.20;;;17.30;91.30;;;;;;6096674;23;20438;-79
2023/05/11 15:10:55;;;;;;;0.20;0.20;;;17.50;88.70;;;;;;6097722;23;20451;-79
2023/05/11 15:13:22;;;;;;;0.80;0.20;;;17.60;79.30;;;;;;6097105;23;20387;-78
2023/05/11 15:15:50;;;;;;;0.40;0.30;;;17.60;75.70;;;;;;6097120;23;20447;-79
2023/05/11 15:18:17;;;;;;;0.60;0.20;;;17.70;72.90;;;;;;6095767;23;20698;-79
2023/05/11 15:20:45;;;;;;;0.35;0.20;;;17.70;73.60;;;;;;6096862;23;20376;-79
2023/05/11 15:23:15;;;;;;;0.40;0.20;;;17.80;72.90;;;;;;6095963;23;20443;-79
2023/05/11 15:25:43;;;;;;;0.70;0.30;;;18.00;69.30;;;;;;6097277;23;20758;-79
2023/05/11 15:28:11;;;;;;;1.63;0.60;;;18.10;76.00;;;;;;6096174;23;20376;-79
2023/05/11 15:30:40;;;;;;;0.70;0.50;;;18.20;71.90;;;;;;6097090;23;20371;-79
2023/05/11 15:33:09;;;;;;;1.02;0.30;;;18.30;70.00;;;;;;6096108;23;20407;-79
2023/05/11 15:35:36;;;;;;;0.63;0.40;;;18.30;71.00;;;;;;6096574;23;20407;-80
2023/05/11 15:38:04;;;;;;;1.20;0.25;;;18.40;73.20;;;;;;6096397;23;20439;-80
2023/05/11 15:40:32;;;;;;;0.60;0.10;;;18.50;72.90;;;;;;6096526;23;20402;-79
2023/05/11 15:42:59;;;;;;;0.60;0.10;;;18.60;75.90;;;;;;6095614;23;20742;-80
2023/05/11 15:45:27;;;;;;;0.40;0.10;;;18.60;74.40;;;;;;6096462;23;20446;-79
2023/05/11 15:47:54;;;;;;;0.10;0.10;;;18.70;72.50;;;;;;6096561;23;20380;-79
2023/05/11 15:50:21;;;;;;;0.00;0.00;;;18.80;70.30;;;;;;6096275;23;20378;-80
2023/05/11 15:52:48;;;;;;;0.60;0.10;;;18.90;68.60;;;;;;6096764;23;20375;-82
2023/05/11 15:55:15;;;;;;;0.50;0.20;;;19.00;64.90;;;;;;6095867;23;20869;-79
2023/05/11 15:57:42;;;;;;;0.40;0.10;;;19.10;63.80;;;;;;6096556;23;20387;-79
2023/05/11 16:00:09;;;;;;;0.10;0.08;;;19.10;61.70;;;;;;6121301;23;20396;-79
2023/05/11 16:02:36;;;;;;;0.15;0.00;;;19.20;63.90;;;;;;6096588;23;20394;-80
2023/05/11 16:05:04;;;;;;;0.08;0.00;;;19.30;63.20;;;;;;6095540;23;20865;-79
2023/05/11 16:07:31;;;;;;;0.10;0.00;;;19.40;61.60;;;;;;6096918;23;20430;-80
2023/05/11 16:09:58;;;;;;;0.60;0.00;;;19.40;59.30;;;;;;6096923;23;20375;-79
2023/05/11 16:12:25;;;;;;;0.10;0.10;;;19.30;58.90;;;;;;6122013;23;20439;-79
2023/05/11 16:14:52;;;;;;;0.20;0.10;;;19.30;59.90;;;;;;6099120;23;20435;-79
2023/05/11 16:17:19;;;;;;;0.38;0.10;;;19.20;61.10;;;;;;6098510;23;20372;-79
2023/05/11 16:19:46;;;;;;;0.13;0.10;;;19.20;62.20;;;;;;6098873;23;20375;-80
2023/05/11 16:22:15;;;;;;;0.13;0.10;;;19.10;63.10;;;;;;6098047;23;20435;-79
2023/05/11 16:24:42;;;;;;;0.20;0.10;;;19.10;64.00;;;;;;6097003;23;20906;-79
2023/05/11 16:27:09;;;;;;;0.50;0.20;;;19.10;65.30;;;;;;6096508;23;21070;-78
2023/05/11 16:29:36;;;;;;;1.10;0.40;;;19.10;66.10;;;;;;6099779;23;20749;-80
2023/05/11 16:32:03;;;;;;;1.40;0.50;;;19.00;67.40;;;;;;6097533;23;20440;-78
2023/05/11 16:34:30;;;;;;;0.90;0.10;;;18.90;62.90;;;;;;6099454;23;20458;-79
2023/05/11 16:36:57;;;;;;;0.60;0.13;;;18.80;58.40;;;;;;6098312;23;20747;-78
2023/05/11 16:39:25;;;;;;;0.85;0.10;;;18.50;58.60;;;;;;6098005;23;20379;-79
2023/05/11 16:41:52;;;;;;;0.40;0.13;;;18.40;58.40;;;;;;6098535;23;20376;-80
2023/05/11 16:44:19;;;;;;;0.60;0.20;;;18.20;58.70;;;;;;6098005;23;20691;-79
2023/05/11 16:46:47;;;;;;;0.52;0.30;;;18.10;58.10;;;;;;6123537;23;20380;-79
2023/05/11 16:49:15;;;;;;;0.70;0.20;;;18.00;58.20;;;;;;6097782;23;20869;-78
2023/05/11 16:51:42;;;;;;;2.00;0.93;;;17.90;58.30;;;;;;6098946;23;20376;-78
2023/05/11 16:54:12;;;;;;;1.40;0.43;;;17.80;59.10;;;;;;6098236;23;20385;-79
2023/05/11 16:56:39;;;;;;;2.75;2.08;;;17.70;60.10;;;;;;6093443;23;20380;-79
2023/05/11 16:59:07;;;;;;;1.33;0.90;;;17.60;60.60;;;;;;6096549;23;20430;-79
2023/05/11 17:01:34;;;;;;;0.57;0.30;;;17.50;60.70;;;;;;6098798;23;20391;-79
2023/05/11 17:04:01;;;;;;;1.90;0.30;;;17.50;62.10;;;;;;6123713;23;20392;-79
2023/05/11 17:06:30;;;;;;;0.88;0.40;;;17.50;61.90;;;;;;6097588;23;20394;-78
2023/05/11 17:08:57;;;;;;;0.38;0.20;;;17.40;62.90;;;;;;6097782;23;20372;-78
2023/05/11 17:11:23;;;;;;;0.28;0.20;;;17.40;64.50;;;;;;6097308;23;20418;-78
2023/05/11 17:13:50;;;;;;;1.45;0.30;;;17.30;66.30;;;;;;6097680;23;20762;-78
2023/05/11 17:16:18;;;;;;;0.40;0.13;;;17.20;67.30;;;;;;6123028;23;20480;-79
2023/05/11 17:18:45;;;;;;;0.77;0.10;;;17.10;68.70;;;;;;6098548;23;20446;-78
2023/05/11 17:21:13;;;;;;;0.77;0.20;;;17.00;69.90;;;;;;6097442;23;20435;-78
2023/05/11 17:23:39;;;;;;;0.57;0.10;;;16.90;71.70;;;;;;6098099;23;20738;-78
2023/05/11 17:26:11;;;;;;;2.40;0.50;;;16.80;72.20;;;;;;6097324;23;20394;-79
2023/05/11 17:28:38;;;;;;;0.53;0.20;;;16.70;72.50;;;;;;6098784;23;20434;-79
2023/05/11 17:31:11;;;;;;;1.00;0.10;;;16.60;72.30;;;;;;6123309;23;20419;-79
2023/05/11 17:33:39;;;;;;;0.70;0.10;;;16.50;72.60;;;;;;6098579;23;20462;-81
2023/05/11 17:36:08;;;;;;;0.32;0.30;;;16.40;74.00;;;;;;6097980;23;20462;-81
2023/05/11 17:38:35;;;;;;;0.20;0.10;;;16.30;75.00;;;;;;6123998;23;20750;-80
2023/05/11 17:41:05;;;;;;;0.20;0.10;;;16.20;76.70;;;;;;6096104;23;20380;-80
2023/05/11 17:43:33;;;;;;;0.70;0.20;;;16.10;76.70;;;;;;6096747;23;20371;-80
2023/05/11 17:46:02;;;;;;;0.30;0.10;;;16.00;77.90;;;;;;6098226;23;20407;-80
2023/05/11 17:48:30;;;;;;;0.13;0.10;;;15.90;79.80;;;;;;6096578;23;20423;-79
2023/05/11 17:50:59;;;;;;;0.20;0.10;;;15.80;80.80;;;;;;6098451;23;20380;-81
2023/05/11 17:53:26;;;;;;;0.50;0.30;;;15.80;82.70;;;;;;6097001;23;20376;-80
2023/05/11 17:55:53;;;;;;;0.47;0.20;;;15.70;85.00;;;;;;6097689;23;20710;-80
2023/05/11 17:58:20;;;;;;;0.15;0.10;;;15.60;85.80;;;;;;6096082;23;20376;-78
2023/05/11 18:00:47;;;;;;;0.60;0.20;;;15.50;85.80;;;;;;6097100;23;20463;-78
2023/05/11 18:03:15;;;;;;;0.38;0.10;;;15.40;86.50;;;;;;6096938;23;20383;-78
2023/05/11 18:05:42;;;;;;;0.20;0.10;;;15.30;86.90;;;;;;6097976;23;20372;-78
2023/05/11 18:08:14;;;;;;;0.30;0.10;;;15.30;86.60;;;;;;6123610;23;20450;-78
2023/05/11 18:10:41;;;;;;;0.70;0.20;;;15.20;86.60;;;;;;6097843;23;20788;-79
2023/05/11 18:13:08;;;;;;;0.13;0.13;;;15.20;87.30;;;;;;6097552;23;20378;-78
2023/05/11 18:15:36;;;;;;;0.80;0.20;;;15.20;88.20;;;;;;6121771;23;20825;-78
2023/05/11 18:18:03;;;;;;;0.60;0.20;;;15.10;89.20;;;;;;6097540;23;20372;-78
2023/05/11 18:20:30;;;;;;;1.20;0.20;;;15.10;89.80;;;;;;6096702;23;20742;-79
2023/05/11 18:22:57;;;;;;;0.38;0.17;;;15.10;90.40;;;;;;6097266;23;20376;-79
2023/05/11 18:25:26;;;;;;;0.30;0.20;;;15.10;91.20;;;;;;6096506;23;20777;-79
2023/05/11 18:27:53;;;;;;;0.20;0.20;;;15.00;91.30;;;;;;6097552;23;20378;-79
2023/05/11 18:30:20;;;;;;;0.30;0.10;;;15.00;91.70;;;;;;6096019;23;20844;-79
2023/05/11 18:32:47;;;;;;;0.40;0.20;;;15.00;91.70;;;;;;6097671;23;20702;-78
2023/05/11 18:35:15;;;;;;;0.40;0.13;;;15.00;91.70;;;;;;6096227;23;20371;-78
2023/05/11 18:37:42;;;;;;;0.70;0.30;;;15.00;91.70;;;;;;6096896;23;20471;-79
2023/05/11 18:40:09;;;;;;;0.32;0.22;;;15.00;91.70;;;;;;6097443;23;20710;-78
2023/05/11 18:42:36;;;;;;;1.10;0.20;;;14.90;90.80;;;;;;6096324;23;20387;-79
2023/05/11 18:45:03;;;;;;;0.32;0.30;;;14.90;89.50;;;;;;6097021;23;20438;-78